createdAt,value
2019-05-01T00:00:22.849Z,8.20
2019-05-01T00:03:22.669Z,10.40
2019-05-01T00:06:04.066Z,9.80
2019-05-01T00:08:44.992Z,8.40
2019-05-01T00:11:25.555Z,9.43
2019-05-01T00:14:06.220Z,10.63
2019-05-01T00:16:47.371Z,11.60
2019-05-01T00:19:28.652Z,8.93
2019-05-01T00:22:09.522Z,11.23
2019-05-01T00:27:51.504Z,12.13
2019-05-01T00:33:30.916Z,12.17
2019-05-01T00:36:18.981Z,12.77
2019-05-01T00:39:07.464Z,14.17
2019-05-01T00:41:55.528Z,12.97
2019-05-01T00:44:24.355Z,15.50
2019-05-01T00:47:12.374Z,13.83
2019-05-01T00:50:00.499Z,14.13
2019-05-01T00:52:29.518Z,12.10
2019-05-01T00:55:36.736Z,13.20
2019-05-01T01:01:35.213Z,15.17
2019-05-01T01:04:18.076Z,17.33
2019-05-01T01:06:58.601Z,13.97
2019-05-01T01:09:39.355Z,15.33
2019-05-01T01:12:20.152Z,17.83
2019-05-01T01:15:00.795Z,18.17
2019-05-01T01:17:41.469Z,19.90
2019-05-01T01:20:22.296Z,20.93
2019-05-01T01:23:31.055Z,16.57
2019-05-01T01:25:59.947Z,19.83
2019-05-01T01:28:28.863Z,19.10
2019-05-01T01:31:16.911Z,16.83
2019-05-01T01:34:05.061Z,20.67
2019-05-01T01:36:53.117Z,20.83
2019-05-01T01:39:41.265Z,24.83
2019-05-01T01:48:25.719Z,20.30
2019-05-01T01:51:13.852Z,27.40
2019-05-01T01:54:02.158Z,21.30
2019-05-01T01:56:50.682Z,22.43
2019-05-01T01:59:31.701Z,23.70
2019-05-01T02:02:31.591Z,24.37
2019-05-01T02:05:15.738Z,22.87
2019-05-01T02:07:56.512Z,23.70
2019-05-01T02:10:43.065Z,25.37
2019-05-01T02:13:19.998Z,25.23
2019-05-01T02:16:00.044Z,27.80
2019-05-01T02:18:48.144Z,27.03
2019-05-01T02:21:36.260Z,26.10
2019-05-01T02:24:24.365Z,26.50
2019-05-01T02:33:07.102Z,25.40
2019-05-01T02:35:55.147Z,30.40
2019-05-01T02:39:03.823Z,28.90
2019-05-01T02:42:12.506Z,26.07
2019-05-01T02:45:21.194Z,26.50
2019-05-01T02:48:09.876Z,27.10
2019-05-01T02:54:26.504Z,34.27
2019-05-01T03:00:25.564Z,29.30
2019-05-01T03:06:07.832Z,31.33
2019-05-01T03:09:16.680Z,31.03
2019-05-01T03:11:57.991Z,34.13
2019-05-01T03:14:39.474Z,35.10
2019-05-01T03:17:39.027Z,36.00
2019-05-01T03:20:47.809Z,31.90
2019-05-01T03:23:55.072Z,29.60
2019-05-01T03:26:43.108Z,33.70
2019-05-01T03:29:31.381Z,32.70
2019-05-01T03:32:20.133Z,37.03
2019-05-01T03:35:09.410Z,32.50
2019-05-01T03:37:57.550Z,33.60
2019-05-01T03:40:45.668Z,34.03
2019-05-01T03:43:33.905Z,38.13
2019-05-01T03:46:22.181Z,38.93
2019-05-01T03:49:10.422Z,37.87
2019-05-01T03:51:58.822Z,37.30
2019-05-01T03:54:47.143Z,38.23
2019-05-01T03:57:28.203Z,41.30
2019-05-01T04:00:10.720Z,40.77
2019-05-01T04:03:11.073Z,44.23
2019-05-01T04:05:51.664Z,45.93
2019-05-01T04:08:32.493Z,39.80
2019-05-01T04:11:13.442Z,43.83
2019-05-01T04:13:42.448Z,38.43
2019-05-01T04:16:30.734Z,44.50
2019-05-01T04:19:18.963Z,41.90
2019-05-01T04:25:19.581Z,43.73
2019-05-01T04:28:27.194Z,42.77
2019-05-01T04:31:34.751Z,45.83
2019-05-01T04:37:29.353Z,50.23
2019-05-01T04:40:18.997Z,50.67
2019-05-01T04:43:07.457Z,55.87
2019-05-01T04:45:56.094Z,50.50
2019-05-01T04:48:44.361Z,52.07
2019-05-01T04:51:32.908Z,49.87
2019-05-01T04:54:21.273Z,52.33
2019-05-01T04:57:09.682Z,49.17
2019-05-01T04:59:50.617Z,54.63
2019-05-01T05:03:04.030Z,53.70
2019-05-01T05:05:36.775Z,54.30
2019-05-01T05:08:17.314Z,63.13
2019-05-01T05:10:59.195Z,58.43
2019-05-01T05:13:47.105Z,55.70
2019-05-01T05:16:48.558Z,57.20
2019-05-01T05:19:29.682Z,58.10
2019-05-01T05:22:10.636Z,59.03
2019-05-01T05:24:52.020Z,53.07
2019-05-01T05:33:18.689Z,64.20
2019-05-01T05:35:54.952Z,59.97
2019-05-01T05:41:28.570Z,60.37
2019-05-01T05:44:11.956Z,65.03
2019-05-01T05:46:53.982Z,58.23
2019-05-01T05:49:35.027Z,63.47
2019-05-01T05:58:32.158Z,56.03
2019-05-01T06:01:32.454Z,58.23
2019-05-01T06:04:32.808Z,53.93
2019-05-01T06:13:46.668Z,59.30
2019-05-01T06:19:26.318Z,58.57
2019-05-01T06:25:29.983Z,55.60
2019-05-01T06:28:19.857Z,58.27
2019-05-01T06:34:23.973Z,52.53
2019-05-01T06:37:04.975Z,59.70
2019-05-01T06:39:48.128Z,55.23
2019-05-01T06:42:28.572Z,54.47
2019-05-01T06:45:16.780Z,59.10
2019-05-01T06:48:00.809Z,55.00
2019-05-01T06:50:51.538Z,56.70
2019-05-01T06:53:36.060Z,60.90
2019-05-01T06:56:15.295Z,58.30
2019-05-01T06:58:56.477Z,54.57
2019-05-01T07:04:31.879Z,56.40
2019-05-01T07:07:01.966Z,56.57
2019-05-01T07:09:31.463Z,61.80
2019-05-01T07:12:03.566Z,59.30
2019-05-01T07:14:32.607Z,65.30
2019-05-01T07:17:01.489Z,57.70
2019-05-01T07:19:48.171Z,63.70
2019-05-01T07:22:17.351Z,54.87
2019-05-01T07:24:48.994Z,64.40
2019-05-01T07:27:18.864Z,54.10
2019-05-01T07:29:49.665Z,61.77
2019-05-01T07:32:18.699Z,61.53
2019-05-01T07:34:49.005Z,59.40
2019-05-01T07:37:20.903Z,58.40
2019-05-01T07:39:51.815Z,57.93
2019-05-01T07:42:29.041Z,63.67
2019-05-01T07:45:09.678Z,60.90
2019-05-01T07:47:43.336Z,65.60
2019-05-01T07:50:14.743Z,63.90
2019-05-01T07:52:47.785Z,64.97
2019-05-01T07:55:18.324Z,54.60
2019-05-01T07:57:46.014Z,66.67
2019-05-01T08:00:36.967Z,55.63
2019-05-01T08:03:14.265Z,59.23
2019-05-01T08:05:46.819Z,59.30
2019-05-01T08:08:28.498Z,52.43
2019-05-01T08:10:59.964Z,48.10
2019-05-01T08:13:35.059Z,52.47
2019-05-01T08:16:07.181Z,53.37
2019-05-01T08:19:07.566Z,49.60
2019-05-01T08:22:01.608Z,50.80
2019-05-01T08:24:31.937Z,53.53
2019-05-01T08:27:05.738Z,50.57
2019-05-01T08:29:56.515Z,54.00
2019-05-01T08:32:39.155Z,53.63
2019-05-01T08:35:10.905Z,54.53
2019-05-01T08:37:41.943Z,47.13
2019-05-01T08:40:15.758Z,54.57
2019-05-01T08:42:44.206Z,48.73
2019-05-01T08:45:40.162Z,49.60
2019-05-01T08:48:17.364Z,48.83
2019-05-01T08:50:46.322Z,52.47
2019-05-01T08:53:18.089Z,47.33
2019-05-01T08:55:47.084Z,49.60
2019-05-01T08:58:16.365Z,48.13
2019-05-01T09:00:45.408Z,44.57
2019-05-01T09:03:18.709Z,44.97
2019-05-01T09:05:44.923Z,47.57
2019-05-01T09:08:13.813Z,38.27
2019-05-01T09:10:42.721Z,43.93
2019-05-01T09:13:11.643Z,39.50
2019-05-01T09:15:43.753Z,43.93
2019-05-01T09:18:11.253Z,43.53
2019-05-01T09:20:41.496Z,41.70
2019-05-01T09:23:14.302Z,41.00
2019-05-01T09:25:52.341Z,36.90
2019-05-01T09:28:29.113Z,42.80
2019-05-01T09:31:03.405Z,38.20
2019-05-01T09:33:33.904Z,39.03
2019-05-01T09:36:05.121Z,38.10
2019-05-01T09:38:37.880Z,34.40
2019-05-01T09:41:11.531Z,32.83
2019-05-01T09:43:47.645Z,36.20
2019-05-01T09:46:42.376Z,35.20
2019-05-01T09:49:18.278Z,32.97
2019-05-01T09:52:32.662Z,31.10
2019-05-01T09:55:24.605Z,30.60
2019-05-01T09:58:02.659Z,31.10
2019-05-01T10:00:35.901Z,31.90
2019-05-01T10:03:19.344Z,35.57
2019-05-01T10:05:57.688Z,34.50
2019-05-01T10:08:53.027Z,36.37
2019-05-01T10:11:49.251Z,30.30
2019-05-01T10:14:22.813Z,32.33
2019-05-01T10:16:54.905Z,31.10
2019-05-01T10:19:26.081Z,31.00
2019-05-01T10:22:12.613Z,37.00
2019-05-01T10:24:56.696Z,32.90
2019-05-01T10:27:35.754Z,32.43
2019-05-01T10:30:31.794Z,34.53
2019-05-01T10:33:13.218Z,27.63
2019-05-01T10:39:20.842Z,29.70
2019-05-01T10:42:56.841Z,30.93
2019-05-01T10:45:59.112Z,25.97
2019-05-01T10:48:45.872Z,27.30
2019-05-01T10:51:36.752Z,30.00
2019-05-01T10:54:08.390Z,24.50
2019-05-01T10:56:47.794Z,28.50
2019-05-01T10:59:43.690Z,26.20
2019-05-01T11:02:41.729Z,24.40
2019-05-01T11:05:39.063Z,32.40
2019-05-01T11:08:23.901Z,29.47
2019-05-01T11:11:05.981Z,31.43
2019-05-01T11:13:45.760Z,30.53
2019-05-01T11:17:17.049Z,23.67
2019-05-01T11:19:46.945Z,29.60
2019-05-01T11:22:19.170Z,22.13
2019-05-01T11:24:48.093Z,21.07
2019-05-01T11:27:17.145Z,22.53
2019-05-01T11:29:46.157Z,18.23
2019-05-01T11:32:33.960Z,21.20
2019-05-01T11:35:20.533Z,20.60
2019-05-01T11:38:08.549Z,18.37
2019-05-01T11:40:44.029Z,19.93
2019-05-01T11:43:12.956Z,18.00
2019-05-01T11:45:42.142Z,17.47
2019-05-01T11:48:11.063Z,21.30
2019-05-01T11:50:40.190Z,18.20
2019-05-01T11:53:09.218Z,16.70
2019-05-01T11:55:41.395Z,22.80
2019-05-01T11:58:10.385Z,16.30
2019-05-01T12:00:39.580Z,15.97
2019-05-01T12:03:08.458Z,17.70
2019-05-01T12:05:37.416Z,18.93
2019-05-01T12:08:06.613Z,19.03
2019-05-01T12:10:36.182Z,15.50
2019-05-01T12:13:05.371Z,22.40
2019-05-01T12:15:34.453Z,17.73
2019-05-01T12:18:03.502Z,21.00
2019-05-01T12:20:32.558Z,17.70
2019-05-01T12:23:01.678Z,23.13
2019-05-01T12:25:30.862Z,18.43
2019-05-01T12:28:00.550Z,18.70
2019-05-01T12:30:29.450Z,17.50
2019-05-01T12:32:58.546Z,18.57
2019-05-01T12:35:27.456Z,18.97
2019-05-01T12:37:59.171Z,15.60
2019-05-01T12:40:28.160Z,16.23
2019-05-01T12:43:00.678Z,20.27
2019-05-01T12:45:29.742Z,15.33
2019-05-01T12:48:00.712Z,17.57
2019-05-01T12:50:29.733Z,16.40
2019-05-01T12:53:04.286Z,18.30
2019-05-01T12:55:49.974Z,18.03
2019-05-01T12:58:18.943Z,14.47
2019-05-01T13:00:50.743Z,15.93
2019-05-01T13:03:19.659Z,15.13
2019-05-01T13:06:29.872Z,15.30
2019-05-01T13:12:58.834Z,16.40
2019-05-01T13:19:03.713Z,14.73
2019-05-01T13:21:51.981Z,14.00
2019-05-01T13:25:00.633Z,15.10
2019-05-01T13:31:24.080Z,12.37
2019-05-01T13:34:12.371Z,13.03
2019-05-01T13:37:21.376Z,14.13
2019-05-01T13:40:10.468Z,10.80
2019-05-01T13:42:58.663Z,15.13
2019-05-01T13:49:01.651Z,11.27
2019-05-01T13:51:49.947Z,10.57
2019-05-01T13:54:38.164Z,10.00
2019-05-01T13:57:30.517Z,13.70
2019-05-01T14:00:19.174Z,14.33
2019-05-01T14:03:00.519Z,12.17
2019-05-01T14:08:36.197Z,9.80
2019-05-01T14:11:20.338Z,10.30
2019-05-01T14:14:10.079Z,9.67
2019-05-01T14:16:58.534Z,9.87
2019-05-01T14:23:10.954Z,10.10
2019-05-01T14:26:18.304Z,8.50
2019-05-01T14:29:06.545Z,10.17
2019-05-01T14:31:57.099Z,9.93
2019-05-01T14:34:45.186Z,9.33
2019-05-01T14:37:52.718Z,7.43
2019-05-01T14:40:40.932Z,7.20
2019-05-01T14:43:29.237Z,8.33
2019-05-01T14:46:17.336Z,11.00
2019-05-01T14:49:05.647Z,7.27
2019-05-01T14:51:54.031Z,6.80
2019-05-01T14:54:42.128Z,7.60
2019-05-01T14:57:30.168Z,6.77
2019-05-01T15:03:07.222Z,7.40
2019-05-01T15:05:54.432Z,6.93
2019-05-01T15:11:16.281Z,5.23
2019-05-01T15:17:26.500Z,6.50
2019-05-01T15:22:57.820Z,5.87
2019-05-01T15:25:45.940Z,7.97
2019-05-01T15:28:14.904Z,6.97
2019-05-01T15:31:03.231Z,15.33
2019-05-01T15:33:51.512Z,14.30
2019-05-01T15:36:39.848Z,6.93
2019-05-01T15:42:45.744Z,5.40
2019-05-01T15:45:33.982Z,7.93
2019-05-01T15:48:22.154Z,4.17
2019-05-01T15:51:10.458Z,6.27
2019-05-01T15:53:58.779Z,5.17
2019-05-01T15:56:47.079Z,5.40
2019-05-01T15:59:35.409Z,11.40
2019-05-01T16:02:23.601Z,5.13
2019-05-01T16:05:11.951Z,13.00
2019-05-01T16:08:09.512Z,7.43
2019-05-01T16:11:11.058Z,4.20
2019-05-01T16:13:58.245Z,3.93
2019-05-01T16:16:43.353Z,4.77
2019-05-01T16:19:24.242Z,8.43
2019-05-01T16:22:05.004Z,4.60
2019-05-01T16:24:45.747Z,4.70
2019-05-01T16:27:26.785Z,5.70
2019-05-01T16:30:08.089Z,4.80
2019-05-01T16:32:51.951Z,3.07
2019-05-01T16:35:33.418Z,2.80
2019-05-01T16:41:06.489Z,4.27
2019-05-01T16:43:49.323Z,4.20
2019-05-01T16:46:30.486Z,6.40
2019-05-01T16:48:59.547Z,4.70
2019-05-01T16:51:29.741Z,4.87
2019-05-01T16:53:59.413Z,6.40
2019-05-01T16:56:47.691Z,3.33
2019-05-01T16:59:35.736Z,4.30
2019-05-01T17:02:42.952Z,5.90
2019-05-01T17:05:50.147Z,15.20
2019-05-01T17:08:57.403Z,4.30
2019-05-01T17:11:38.193Z,10.83
2019-05-01T17:14:19.508Z,5.90
2019-05-01T17:17:00.216Z,8.80
2019-05-01T17:19:40.765Z,3.30
2019-05-01T17:22:21.570Z,4.07
2019-05-01T17:25:02.542Z,5.03
2019-05-01T17:27:42.979Z,3.90
2019-05-01T17:30:25.456Z,5.63
2019-05-01T17:33:06.604Z,7.57
2019-05-01T17:35:47.351Z,4.40
2019-05-01T17:38:28.038Z,4.73
2019-05-01T17:41:08.855Z,4.20
2019-05-01T17:43:50.596Z,3.60
2019-05-01T17:46:31.820Z,3.73
2019-05-01T17:49:12.275Z,3.30
2019-05-01T17:51:53.284Z,4.87
2019-05-01T17:54:34.022Z,4.50
2019-05-01T17:57:14.632Z,4.53
2019-05-01T17:59:55.571Z,3.33
2019-05-01T18:02:36.626Z,5.27
2019-05-01T18:05:24.730Z,3.30
2019-05-01T18:08:12.848Z,3.20
2019-05-01T18:11:00.929Z,4.10
2019-05-01T18:13:48.998Z,5.30
2019-05-01T18:16:37.005Z,5.03
2019-05-01T18:19:25.389Z,3.10
2019-05-01T18:22:37.069Z,3.80
2019-05-01T18:29:13.966Z,5.63
2019-05-01T18:32:14.373Z,3.77
2019-05-01T18:34:52.535Z,4.77
2019-05-01T18:38:11.588Z,10.13
2019-05-01T18:41:19.681Z,4.43
2019-05-01T18:44:10.034Z,6.23
2019-05-01T18:46:58.715Z,5.27
2019-05-01T18:49:46.951Z,4.20
2019-05-01T18:52:35.335Z,4.50
2019-05-01T18:55:25.875Z,6.83
2019-05-01T18:58:13.462Z,6.70
2019-05-01T19:01:03.928Z,7.20
2019-05-01T19:03:44.711Z,18.93
2019-05-01T19:06:13.853Z,7.40
2019-05-01T19:09:14.312Z,6.73
2019-05-01T19:11:52.529Z,10.70
2019-05-01T19:14:40.854Z,8.53
2019-05-01T19:17:29.155Z,6.80
2019-05-01T19:20:17.298Z,7.60
2019-05-01T19:23:05.643Z,5.90
2019-05-01T19:25:56.451Z,11.27
2019-05-01T19:28:46.480Z,9.90
2019-05-01T19:31:34.698Z,7.43
2019-05-01T19:34:23.038Z,12.53
2019-05-01T19:40:53.044Z,8.03
2019-05-01T19:46:36.050Z,6.33
2019-05-01T19:49:44.794Z,7.20
2019-05-01T19:52:14.236Z,7.00
2019-05-01T20:01:30.628Z,7.80
2019-05-01T20:04:15.112Z,9.30
2019-05-01T20:06:57.678Z,8.07
2019-05-01T20:09:41.840Z,8.57
2019-05-01T20:12:22.470Z,10.47
2019-05-01T20:15:04.878Z,8.00
2019-05-01T20:17:46.963Z,7.93
2019-05-01T20:20:28.144Z,9.50
2019-05-01T20:23:12.006Z,7.60
2019-05-01T20:25:55.779Z,8.20
2019-05-01T20:28:37.385Z,8.60
2019-05-01T20:31:32.928Z,7.47
2019-05-01T20:34:22.109Z,6.20
2019-05-01T20:37:03.260Z,9.33
2019-05-01T20:39:47.371Z,9.20
2019-05-01T20:42:28.191Z,8.30
2019-05-01T20:45:17.460Z,8.80
2019-05-01T20:47:46.151Z,6.30
2019-05-01T20:50:18.491Z,8.60
2019-05-01T20:52:48.608Z,8.47
2019-05-01T20:55:17.782Z,8.47
2019-05-01T20:57:47.389Z,7.80
2019-05-01T21:00:18.617Z,7.87
2019-05-01T21:02:47.651Z,8.33
2019-05-01T21:05:25.349Z,8.77
2019-05-01T21:08:16.431Z,10.03
2019-05-01T21:11:05.934Z,8.80
2019-05-01T21:13:46.919Z,9.77
2019-05-01T21:16:39.630Z,7.57
2019-05-01T21:19:11.625Z,12.50
2019-05-01T21:21:40.784Z,10.10
2019-05-01T21:24:15.607Z,14.67
2019-05-01T21:26:45.604Z,10.03
2019-05-01T21:29:15.063Z,10.30
2019-05-01T21:31:44.237Z,7.67
2019-05-01T21:34:14.463Z,18.97
2019-05-01T21:36:47.647Z,8.13
2019-05-01T21:39:15.023Z,10.93
2019-05-01T21:41:44.983Z,9.60
2019-05-01T21:44:13.968Z,9.43
2019-05-01T21:46:43.249Z,10.10
2019-05-01T21:49:12.958Z,8.47
2019-05-01T21:51:45.861Z,8.60
2019-05-01T21:54:16.145Z,6.73
2019-05-01T21:56:42.990Z,7.57
2019-05-01T21:59:12.060Z,7.27
2019-05-01T22:01:40.518Z,8.20
2019-05-01T22:04:09.467Z,10.17
2019-05-01T22:06:38.550Z,8.67
2019-05-01T22:09:15.216Z,9.00
2019-05-01T22:11:44.578Z,10.93
2019-05-01T22:14:18.553Z,11.63
2019-05-01T22:16:47.619Z,10.40
2019-05-01T22:19:19.086Z,10.53
2019-05-01T22:21:55.763Z,11.53
2019-05-01T22:24:40.028Z,10.27
2019-05-01T22:27:13.393Z,13.30
2019-05-01T22:29:51.296Z,10.97
2019-05-01T22:32:32.546Z,12.33
2019-05-01T22:35:09.725Z,12.03
2019-05-01T22:37:38.634Z,12.83
2019-05-01T22:40:10.287Z,11.43
2019-05-01T22:42:39.220Z,16.03
2019-05-01T22:45:13.558Z,11.37
2019-05-01T22:47:45.985Z,15.50
2019-05-01T22:50:13.444Z,13.10
2019-05-01T22:52:42.340Z,15.57
2019-05-01T22:55:12.686Z,12.37
2019-05-01T22:57:41.704Z,12.83
2019-05-01T23:00:19.066Z,15.60
2019-05-01T23:02:48.394Z,12.80
2019-05-01T23:05:17.346Z,16.17
2019-05-01T23:07:46.348Z,17.80
2019-05-01T23:10:15.404Z,18.60
2019-05-01T23:12:44.237Z,18.00
2019-05-01T23:15:18.608Z,20.53
2019-05-01T23:17:47.538Z,17.30
2019-05-01T23:20:16.882Z,16.67
2019-05-01T23:22:45.791Z,20.27
2019-05-01T23:25:15.026Z,17.23
2019-05-01T23:27:43.959Z,15.63
2019-05-01T23:30:15.614Z,19.13
2019-05-01T23:32:44.643Z,17.20
2019-05-01T23:35:13.784Z,15.70
2019-05-01T23:37:42.777Z,18.73
2019-05-01T23:40:15.575Z,17.90
2019-05-01T23:42:43.246Z,18.53
2019-05-01T23:45:13.673Z,15.87
2019-05-01T23:47:43.918Z,17.30
2019-05-01T23:50:13.181Z,15.13
2019-05-01T23:52:42.099Z,17.63
2019-05-01T23:55:11.189Z,18.67
2019-05-01T23:57:40.123Z,17.90
